Friday, May 27, 2016
04:39 UTC
  |  Log In   |  Register Free
Airport Search:

Clayton Municipal Airport
(11A)

Clayton Municipal Airport Diagram
No Airport Diagram Available

FAA data valid effective Mar 31 2016 - May 26 2016 (unless otherwise noted).

 
 
 
 
 
 
 
 
 
 
 
 
 
 
Current Aviation Weather for 11A

Weather Summary


Current weather conditions are not available for 11A - The nearest NOAA weather station is at EUF, (18.6 nm NE from 11A)

The most recent METAR observation for 11A was updated at: 12:58 UTC
METAR for 11A is not available. Closest METAR is for KTOI 26.9 nm NE
KTOI  (26.9 nm NE)   (most recent observation was updated at 27:03 UTC)
270353Z AUTO 00000KT 10SM CLR 22/19 A3007 RMK AO2 SLP178 T02220194 TSNO

KDHN  (33.8 nm NW)   (most recent observation was updated at 27:03 UTC)
270353Z AUTO 21005KT 10SM CLR 24/19 A3010 RMK AO2 SLP188 T02390194

TAF for 11A is not available.
KTOI  (26.9 nm NE)   (most recent observation was updatred at 26:23 UTC)
262326Z 2700/2724 18005KT P6SM SCT250 TEMPO 2709/2713 5SM BR FM271500 12007KT P6SM SCT045 BKN250


KDHN  (33.8 nm NW)   (most recent observation was updatred at 26:23 UTC)
262325Z 2700/2724 VRB05KT P6SM VCSH SCT060 FM270200 VRB03KT P6SM FEW080 FEW250 FM271400 11007KT P6SM SCT060


GlobalAir.com is loading additional information.
 Current Weather at TOI
72.0 F° (22.2 C°)

North winds at 0.0 mph
Pressure:
30.08 in
Humidity:
84%
Wind:
North at 0.0 mph
Dew Point:
66.9 F° (19.4 C°)
Visibility:
10.00 mi
11A NOAA Radar




Find All Airport Services Find A Hotel Find A Rental Car Find A Golf Course Find A Restaurant $100 Hamburger



Airport Weather Forecast for 11A

Translated METAR for KEUF (0358 UTC)
METAR:
KEUF 270358Z AUTO 20003KT 10SM CLR 22/18 A3006 RMK AO2 SLP174 T02170178 $
Conditions at:
KEUF (Weedon Field, AL) observed 0358 UTC 27 May 2016
Temperature:
22°C (71.6°F)
Dewpoint:
18°C (64.4°F) [RH = 78.1]
Pressure:
30.06 inches Hg (1017.9 mb)
pressure at sea level is 174 in Hg
Winds:
from the SSW (200 degrees) at 3.5 mph (3 knots: 1.5 m/s)
Visibility:
10 mile(s)
Ceiling:
at least 12,000 feet AGL
Clouds:
Clear below 12,000 feet AGL
Remarks:
site is un-manned
SOME DATA ABOVE MAY BE INACCURATE!!!
"$" is an indication the sensor requires maintenance
site is automated and HAS a precipitation sensor

Translated TAF for KTOI (Troy Muni Airport At N Kenneth Campbell Field, AL) (2326 UTC)
TAF text:
KTOI 262326Z 2700/2724 18005KT P6SM SCT250
Forecast period:
Friday May 27 2016 00:00 UTC - Friday May 27 2016 24:00 UTC
Forecast type:
FROM: standard forecast or significant change
Winds:
from the S (180 degrees) at 5.8 mph (5 knots: 2.6 m/s)
Visibility:
6 or more mile(s) (9.7+ km)
Ceiling:
at least 12,000 feet AGL
Clouds:
Scattered Clouds at 25,000 feet AGL
Weather:
no significant weather observed at this time
TAF text:
2709/2713 5SM BR
Forecast period:
Saturday May 28 2016 09:00 UTC - Saturday May 28 2016 13:00 UTC
Forecast type:
FROM: standard forecast or significant change
Winds:
Visibility:
5 mile(s) (8 km)
Ceiling:
Clouds:
Weather:
Moderate Mist
TAF text:
FM271500 12007KT P6SM SCT045 BKN250
Forecast period:
Friday May 27 2016 15:00 UTC - Friday May 27 2016 24:00 UTC
Forecast type:
FROM: standard forecast or significant change
Winds:
from the ESE (120 degrees) at 8.1 mph (7 knots: 3.6 m/s)
Visibility:
6 or more mile(s) (9.7+ km)
Ceiling:
25,000 feet AGL
Clouds:
Scattered Clouds at 4,500 feet AGL
Broken Cloud Cover at 25,000 feet AGL
Weather:
no significant weather observed at this time
FBO's on the Field
FBO Company Facility Photos Services Transportation Aviation Fuel Prices: Prices include tax
Catering Weather Repair Courtesy Rental Type 100LL JetA JetA+ MOGAS 8087
 
Add another FBO Facility Photos Catering Weather Repair Courtesy Rental Type 100LL JetA JetA+ MOGAS 8087
Services Transportation Aviation Fuel Prices: Prices include tax
There are no FBO's currently reporting fuel at 11A. List your FBO now


model-print
model-print
model-print
model-print